createdAt,value
2019-02-09T00:00:40.840Z,10.30
2019-02-09T00:04:53.673Z,10.30
2019-02-09T00:09:09.255Z,10.20
2019-02-09T00:13:21.984Z,10.20
2019-02-09T00:17:34.435Z,10.20
2019-02-09T00:21:47.219Z,10.20
2019-02-09T00:25:59.802Z,10.20
2019-02-09T00:30:12.628Z,10.20
2019-02-09T00:34:25.503Z,10.20
2019-02-09T00:38:37.834Z,10.20
2019-02-09T00:42:50.738Z,10.20
2019-02-09T00:47:03.296Z,10.20
2019-02-09T00:51:15.592Z,10.20
2019-02-09T00:55:28.684Z,10.20
2019-02-09T00:59:42.375Z,10.30
2019-02-09T01:03:54.689Z,10.30
2019-02-09T01:08:07.275Z,10.20
2019-02-09T01:12:20.029Z,10.20
2019-02-09T01:16:32.448Z,10.20
2019-02-09T01:20:45.332Z,10.10
2019-02-09T01:24:57.794Z,10.10
2019-02-09T01:29:10.225Z,10.00
2019-02-09T01:33:23.267Z,10.00
2019-02-09T01:37:35.925Z,9.90
2019-02-09T01:41:48.639Z,9.90
2019-02-09T01:46:01.096Z,9.90
2019-02-09T01:50:14.930Z,9.90
2019-02-09T01:54:27.728Z,9.90
2019-02-09T01:58:40.293Z,9.90
2019-02-09T02:02:52.704Z,10.00
2019-02-09T02:07:05.692Z,9.80
2019-02-09T02:11:19.342Z,9.60
2019-02-09T02:15:32.676Z,9.60
2019-02-09T02:19:46.361Z,9.50
2019-02-09T02:23:58.776Z,9.50
2019-02-09T02:28:11.183Z,9.50
2019-02-09T02:32:24.266Z,9.50
2019-02-09T02:36:36.732Z,9.60
2019-02-09T02:40:50.348Z,9.70
2019-02-09T02:45:02.601Z,9.70
2019-02-09T02:49:15.479Z,9.80
2019-02-09T02:53:27.846Z,9.80
2019-02-09T02:57:40.241Z,9.90
2019-02-09T03:01:53.036Z,9.90
2019-02-09T03:06:05.592Z,10.00
2019-02-09T03:10:18.312Z,10.00
2019-02-09T03:14:31.105Z,10.00
2019-02-09T03:18:43.670Z,9.90
2019-02-09T03:22:56.078Z,9.90
2019-02-09T03:27:08.867Z,9.90
2019-02-09T03:31:21.313Z,9.90
2019-02-09T03:35:33.891Z,9.90
2019-02-09T03:39:46.862Z,9.90
2019-02-09T03:43:59.335Z,9.90
2019-02-09T03:48:12.168Z,9.90
2019-02-09T03:52:24.629Z,10.00
2019-02-09T03:56:37.041Z,10.00
2019-02-09T04:00:55.372Z,10.00
2019-02-09T04:05:04.441Z,10.00
2019-02-09T04:09:17.165Z,10.10
2019-02-09T04:13:29.921Z,10.10
2019-02-09T04:17:42.808Z,10.20
2019-02-09T04:21:55.232Z,10.20
2019-02-09T04:26:07.637Z,10.20
2019-02-09T04:30:21.991Z,10.20
2019-02-09T04:34:34.777Z,10.30
2019-02-09T04:38:47.714Z,10.40
2019-02-09T04:43:00.176Z,10.40
2019-02-09T04:47:12.548Z,10.40
2019-02-09T04:51:25.370Z,10.40
2019-02-09T04:55:37.726Z,10.30
2019-02-09T04:59:50.717Z,10.30
2019-02-09T05:04:03.269Z,10.30
2019-02-09T05:08:15.683Z,10.30
2019-02-09T05:12:28.575Z,10.30
2019-02-09T05:16:41.095Z,10.30
2019-02-09T05:20:54.124Z,10.20
2019-02-09T05:25:06.930Z,10.20
2019-02-09T05:29:19.669Z,10.20
2019-02-09T05:33:32.292Z,10.20
2019-02-09T05:37:45.125Z,10.10
2019-02-09T05:41:57.577Z,10.10
2019-02-09T05:46:09.975Z,10.20
2019-02-09T05:50:22.950Z,10.20
2019-02-09T05:54:35.432Z,10.20
2019-02-09T05:58:47.736Z,10.20
2019-02-09T06:03:00.633Z,10.20
2019-02-09T06:07:13.103Z,10.20
2019-02-09T06:11:26.078Z,10.20
2019-02-09T06:15:38.640Z,10.20
2019-02-09T06:19:52.627Z,10.20
2019-02-09T06:24:05.672Z,10.20
2019-02-09T06:28:17.930Z,10.20
2019-02-09T06:32:30.813Z,10.20
2019-02-09T06:36:43.379Z,10.20
2019-02-09T06:40:55.890Z,10.20
2019-02-09T06:45:10.899Z,10.20
2019-02-09T06:49:23.757Z,10.20
2019-02-09T06:53:36.274Z,10.20
2019-02-09T06:57:48.521Z,10.20
2019-02-09T07:02:01.412Z,10.30
2019-02-09T07:06:13.871Z,10.20
2019-02-09T07:10:26.795Z,10.10
2019-02-09T07:14:39.414Z,10.10
2019-02-09T07:18:51.837Z,10.10
2019-02-09T07:23:04.433Z,10.00
2019-02-09T07:27:17.078Z,10.00
2019-02-09T07:31:29.600Z,10.10
2019-02-09T07:35:43.766Z,10.10
2019-02-09T07:39:56.743Z,10.10
2019-02-09T07:44:08.997Z,10.00
2019-02-09T07:48:21.877Z,10.10
2019-02-09T07:52:34.329Z,10.20
2019-02-09T07:56:46.804Z,10.30
2019-02-09T08:00:59.528Z,10.40
2019-02-09T08:05:12.829Z,10.40
2019-02-09T08:09:25.546Z,10.40
2019-02-09T08:13:37.934Z,10.50
2019-02-09T08:17:50.243Z,10.50
2019-02-09T08:22:03.219Z,10.50
2019-02-09T08:26:15.701Z,10.50
2019-02-09T08:30:31.360Z,10.60
2019-02-09T08:34:43.945Z,10.70
2019-02-09T08:38:56.493Z,10.70
2019-02-09T08:43:08.777Z,10.50
2019-02-09T08:47:21.528Z,10.50
2019-02-09T08:51:33.988Z,10.50
2019-02-09T08:55:46.391Z,10.50
2019-02-09T08:59:59.247Z,10.70
2019-02-09T09:04:11.744Z,10.90
2019-02-09T09:08:24.060Z,11.00
2019-02-09T09:12:36.945Z,11.20
2019-02-09T09:16:49.401Z,11.40
2019-02-09T09:21:03.734Z,11.50
2019-02-09T09:25:16.489Z,11.70
2019-02-09T09:29:28.861Z,11.70
2019-02-09T09:33:41.684Z,11.80
2019-02-09T09:37:55.866Z,11.90
2019-02-09T09:42:08.768Z,11.90
2019-02-09T09:46:21.333Z,11.80
2019-02-09T09:50:34.321Z,11.70
2019-02-09T09:54:46.876Z,11.70
2019-02-09T09:58:59.824Z,11.70
2019-02-09T10:03:12.428Z,11.80
2019-02-09T10:07:24.836Z,11.80
2019-02-09T10:11:37.729Z,11.70
2019-02-09T10:15:50.179Z,11.70
2019-02-09T10:20:02.491Z,11.80
2019-02-09T10:24:15.208Z,11.80
2019-02-09T10:28:28.006Z,11.70
2019-02-09T10:32:44.481Z,11.70
2019-02-09T10:36:54.980Z,11.80
2019-02-09T10:41:07.440Z,11.80
2019-02-09T10:45:21.656Z,11.80
2019-02-09T10:49:34.229Z,11.80
2019-02-09T10:53:46.632Z,11.90
2019-02-09T10:57:59.043Z,11.90
2019-02-09T11:02:11.900Z,11.90
2019-02-09T11:06:24.396Z,12.00
2019-02-09T11:10:36.811Z,12.00
2019-02-09T11:14:49.587Z,11.90
2019-02-09T11:19:02.162Z,11.90
2019-02-09T11:23:14.564Z,12.00
2019-02-09T11:27:28.154Z,12.10
2019-02-09T11:31:41.068Z,12.20
2019-02-09T11:35:53.662Z,12.20
2019-02-09T11:40:07.328Z,12.20
2019-02-09T11:44:19.613Z,12.30
2019-02-09T11:48:32.395Z,12.30
2019-02-09T11:52:44.960Z,12.30
2019-02-09T11:56:57.276Z,12.20
2019-02-09T12:01:10.062Z,12.20
2019-02-09T12:05:22.580Z,12.30
2019-02-09T12:09:35.398Z,12.30
2019-02-09T12:13:55.039Z,12.30
2019-02-09T12:18:02.121Z,12.40
2019-02-09T12:22:14.904Z,12.50
2019-02-09T12:26:27.253Z,12.50
2019-02-09T12:30:40.175Z,12.60
2019-02-09T12:34:52.769Z,12.60
2019-02-09T12:39:07.957Z,12.60
2019-02-09T12:43:20.284Z,12.70
2019-02-09T12:47:33.181Z,12.50
2019-02-09T12:51:45.631Z,12.50
2019-02-09T12:55:57.941Z,12.50
2019-02-09T13:00:15.482Z,12.50
2019-02-09T13:04:28.171Z,12.50
2019-02-09T13:08:41.057Z,12.50
2019-02-09T13:12:53.551Z,12.50
2019-02-09T13:17:05.987Z,12.40
2019-02-09T13:21:18.748Z,12.40
2019-02-09T13:25:31.204Z,12.40
2019-02-09T13:29:43.616Z,12.40
2019-02-09T13:33:56.508Z,12.40
2019-02-09T13:38:09.137Z,12.50
2019-02-09T13:42:22.063Z,12.50
2019-02-09T13:46:34.512Z,12.50
2019-02-09T13:50:47.952Z,12.50
2019-02-09T13:55:00.295Z,12.50
2019-02-09T13:59:13.252Z,12.40
2019-02-09T14:03:25.708Z,12.30
2019-02-09T14:07:38.022Z,12.20
2019-02-09T14:11:51.083Z,12.10
2019-02-09T14:16:08.138Z,12.10
2019-02-09T14:20:18.191Z,12.10
2019-02-09T14:24:30.652Z,12.00
2019-02-09T14:28:42.965Z,12.00
2019-02-09T14:32:55.856Z,11.90
2019-02-09T14:37:08.571Z,11.80
2019-02-09T14:41:21.480Z,11.80
2019-02-09T14:45:35.741Z,11.80
2019-02-09T14:49:48.583Z,11.80
2019-02-09T14:54:01.040Z,11.70
2019-02-09T14:58:14.392Z,11.60
2019-02-09T15:02:26.696Z,11.50
2019-02-09T15:06:39.005Z,11.40
2019-02-09T15:10:51.901Z,11.50
2019-02-09T15:15:04.525Z,11.40
2019-02-09T15:19:17.448Z,11.30
2019-02-09T15:23:29.800Z,11.40
2019-02-09T15:27:42.103Z,11.40
2019-02-09T15:31:54.512Z,11.30
2019-02-09T15:36:07.199Z,11.20
2019-02-09T15:40:20.659Z,11.20
2019-02-09T15:44:33.374Z,11.20
2019-02-09T15:48:46.192Z,11.20
2019-02-09T15:52:58.653Z,11.10
2019-02-09T15:57:11.561Z,11.10
2019-02-09T16:01:24.204Z,11.20
2019-02-09T16:05:36.613Z,11.20
2019-02-09T16:09:49.605Z,11.20
2019-02-09T16:14:02.414Z,11.30
2019-02-09T16:18:15.153Z,11.30
2019-02-09T16:22:27.615Z,11.20
2019-02-09T16:26:40.023Z,11.20
2019-02-09T16:30:52.909Z,11.30
2019-02-09T16:35:06.207Z,11.30
2019-02-09T16:39:18.997Z,11.20
2019-02-09T16:43:31.901Z,11.20
2019-02-09T16:47:44.553Z,11.10
2019-02-09T16:51:57.997Z,11.00
2019-02-09T16:56:10.432Z,10.90
2019-02-09T17:00:49.475Z,10.80
2019-02-09T17:05:01.879Z,10.70
2019-02-09T17:09:14.852Z,10.60
2019-02-09T17:13:27.416Z,10.40
2019-02-09T17:17:39.816Z,10.40
2019-02-09T17:21:52.618Z,10.40
2019-02-09T17:26:05.374Z,10.40
2019-02-09T17:30:20.812Z,10.30
2019-02-09T17:34:40.642Z,10.20
2019-02-09T17:38:47.749Z,10.20
2019-02-09T17:43:00.737Z,10.10
2019-02-09T17:47:13.189Z,10.10
2019-02-09T17:51:25.663Z,9.90
2019-02-09T17:55:38.388Z,9.90
2019-02-09T17:59:50.848Z,9.80
2019-02-09T18:04:03.152Z,9.80
2019-02-09T18:08:15.669Z,9.80
2019-02-09T18:12:28.920Z,9.80
2019-02-09T18:16:41.324Z,9.80
2019-02-09T18:20:54.160Z,9.70
2019-02-09T18:25:08.059Z,9.70
2019-02-09T18:29:20.308Z,9.80
2019-02-09T18:33:32.616Z,10.10
2019-02-09T18:37:44.933Z,10.40
2019-02-09T18:41:57.787Z,10.80
2019-02-09T18:46:10.296Z,11.00
2019-02-09T18:50:24.780Z,11.10
2019-02-09T18:54:37.546Z,11.30
2019-02-09T18:58:49.893Z,11.50
2019-02-09T19:03:02.876Z,11.50
2019-02-09T19:07:15.340Z,11.60
2019-02-09T19:11:28.320Z,11.60
2019-02-09T19:15:40.884Z,11.60
2019-02-09T19:19:53.763Z,11.70
2019-02-09T19:24:06.765Z,11.70
2019-02-09T19:28:19.521Z,11.60
2019-02-09T19:32:31.983Z,11.60
2019-02-09T19:36:44.396Z,11.60
2019-02-09T19:40:57.280Z,11.60
2019-02-09T19:45:12.660Z,11.60
2019-02-09T19:49:25.013Z,11.60
2019-02-09T19:53:37.328Z,11.60
2019-02-09T19:57:50.183Z,11.50
2019-02-09T20:02:02.676Z,11.50
2019-02-09T20:06:14.993Z,11.50
2019-02-09T20:10:29.936Z,11.40
2019-02-09T20:14:42.286Z,11.50
2019-02-09T20:18:55.066Z,11.50
2019-02-09T20:23:07.529Z,11.40
2019-02-09T20:27:19.889Z,11.50
2019-02-09T20:31:32.725Z,11.50
2019-02-09T20:35:45.181Z,11.50
2019-02-09T20:39:58.172Z,11.40
2019-02-09T20:44:10.925Z,11.40
2019-02-09T20:48:23.812Z,11.40
2019-02-09T20:52:36.274Z,11.40
2019-02-09T20:56:48.687Z,11.40
2019-02-09T21:01:01.646Z,11.40
2019-02-09T21:05:15.188Z,11.40
2019-02-09T21:09:27.678Z,11.40
2019-02-09T21:13:40.088Z,11.50
2019-02-09T21:17:52.423Z,11.50
2019-02-09T21:22:05.392Z,11.50
2019-02-09T21:26:17.641Z,11.50
2019-02-09T21:30:30.811Z,11.50
2019-02-09T21:34:43.307Z,11.50
2019-02-09T21:38:55.708Z,11.40
2019-02-09T21:43:08.659Z,11.40
2019-02-09T21:47:21.151Z,11.40
2019-02-09T21:51:33.468Z,11.40
2019-02-09T21:55:46.355Z,11.40
2019-02-09T21:59:58.828Z,11.40
2019-02-09T22:04:11.178Z,11.30
2019-02-09T22:08:23.912Z,11.30
2019-02-09T22:12:36.547Z,11.30
2019-02-09T22:16:49.054Z,11.30
2019-02-09T22:21:01.827Z,11.40
2019-02-09T22:25:16.749Z,11.40
2019-02-09T22:29:29.200Z,11.50
2019-02-09T22:33:41.675Z,11.50
2019-02-09T22:37:54.401Z,11.50
2019-02-09T22:42:07.329Z,11.60
2019-02-09T22:46:20.052Z,11.60
2019-02-09T22:50:34.395Z,11.70
2019-02-09T22:54:47.151Z,11.60
2019-02-09T22:58:59.496Z,11.50
2019-02-09T23:03:12.721Z,11.20
2019-02-09T23:07:35.500Z,11.10
2019-02-09T23:11:49.191Z,11.00
2019-02-09T23:16:01.643Z,11.00
2019-02-09T23:20:15.189Z,10.90
2019-02-09T23:24:27.489Z,10.80
2019-02-09T23:28:39.808Z,10.80
2019-02-09T23:32:52.596Z,10.90
2019-02-09T23:37:05.215Z,10.90
2019-02-09T23:41:18.047Z,10.90
2019-02-09T23:45:30.728Z,10.90
2019-02-09T23:49:44.375Z,10.90
2019-02-09T23:53:56.661Z,10.90
2019-02-09T23:58:09.439Z,10.90
